Doris T — V2HR — position and weather

sailwx.info

Track history (hours):
 
Tides and Currents Weather Stations Pressure Air Temp Water Temp Dewpoint Dewpoint Depression Visibility Wind Speed Wind Dir Waves Ship Positions

Doris T

Last reported at 2014-Aug-29 09:33 UTC. Time now 2014-Aug-30 00:33 UTC.
Position N 50°33' E 000°09'.

Length 79 m; draft 5.1 m.

Type: Cargo ship. MMSI: 304010102.

Date/timePositionNaut miles runAvg speedWind from/ knotsBaromVisibWave heightAir tempDewpointWater temp
2014-Aug-29 09:33N 50°33' E 000°09'5 5.3
2014-Aug-29 08:34N 50°35' E 000°17'7 6.6
2014-Aug-29 07:33N 50°37' E 000°27'7 7.4
2014-Aug-29 06:33N 50°40' E 000°37'8 7.6
2014-Aug-29 05:33N 50°44' E 000°47'8 7.3
2014-Aug-29 04:31N 50°49' E 000°57'22 5.5
2014-Aug-29 00:33N 51°03' E 001°24'6 5.6
2014-Aug-28 23:33N 51°06' E 001°30'8 7.7
2014-Aug-28 22:34N 51°13' E 001°38'9 9.3
2014-Aug-28 21:34N 51°22' E 001°34'9 8.8
2014-Aug-28 20:33N 51°28' E 001°24'9 9.1
2014-Aug-28 19:33N 51°29' E 001°09'9 9.1
2014-Aug-28 18:33N 51°29' E 000°55'1010.3
2014-Aug-28 17:33N 51°30' E 000°38'10 9.9
2014-Aug-28 16:34N 51°27' E 000°23'8 8.2
2014-Aug-28 15:34N 51°30' E 000°11'0 0.1
2014-Aug-28 14:32N 51°30' E 000°10'0 0.0
2014-Aug-28 13:32N 51°30' E 000°10'0 0.0
2014-Aug-28 12:32N 51°30' E 000°10'0 0.0
2014-Aug-28 11:32N 51°30' E 000°10'0 0.0
2014-Aug-28 10:32N 51°30' E 000°10'0 0.0
2014-Aug-28 09:29N 51°30' E 000°10'0 0.0
2014-Aug-28 08:29N 51°30' E 000°10'0 0.0
2014-Aug-28 07:32N 51°30' E 000°10'0 0.0
2014-Aug-28 06:32N 51°30' E 000°10'0 0.0
2014-Aug-28 05:32N 51°30' E 000°10'0 0.0
2014-Aug-28 04:29N 51°30' E 000°10'0 0.0
2014-Aug-28 03:32N 51°30' E 000°10'0 0.0
2014-Aug-28 02:29N 51°30' E 000°10'0 0.0
2014-Aug-28 01:32N 51°30' E 000°10'0 0.0
2014-Aug-28 00:32N 51°30' E 000°10'0 0.0
2014-Aug-27 23:32N 51°30' E 000°10'0 0.0
2014-Aug-27 22:29N 51°30' E 000°10'0 0.0
2014-Aug-27 21:29N 51°30' E 000°10'0 0.0
2014-Aug-27 20:29N 51°30' E 000°10'0 0.0
2014-Aug-27 19:32N 51°30' E 000°10'0 0.0
2014-Aug-27 18:32N 51°30' E 000°10'0 0.0
2014-Aug-27 17:32N 51°30' E 000°10'0 0.0
2014-Aug-27 16:32N 51°30' E 000°10'0 0.0
2014-Aug-27 15:32N 51°30' E 000°10'0 0.0
2014-Aug-27 14:32N 51°30' E 000°10'0 0.0
2014-Aug-27 13:32N 51°30' E 000°10'0 0.0
2014-Aug-27 12:32N 51°30' E 000°10'0 0.0
2014-Aug-27 11:32N 51°30' E 000°10'0 0.0
2014-Aug-27 10:32N 51°30' E 000°10'0 0.0
2014-Aug-27 09:29N 51°30' E 000°10'0 0.0
2014-Aug-27 08:32N 51°30' E 000°10'0 0.0
2014-Aug-27 07:29N 51°30' E 000°10'0 0.0
2014-Aug-27 06:32N 51°30' E 000°10'0 0.0
2014-Aug-27 05:32N 51°30' E 000°10'0 0.0
2014-Aug-27 04:32N 51°30' E 000°10'0 0.0
2014-Aug-27 03:32N 51°30' E 000°10'0 0.1
2014-Aug-27 02:32N 51°30' E 000°11'0 0.0
2014-Aug-27 01:29N 51°30' E 000°11'0 0.0
2014-Aug-27 00:32N 51°30' E 000°11'0 0.0
2014-Aug-26 23:32N 51°30' E 000°11'0 0.0
2014-Aug-26 22:32N 51°30' E 000°11'0 0.0
2014-Aug-26 21:32N 51°30' E 000°11'0 0.1
2014-Aug-26 20:32N 51°29' E 000°11'0 0.0
2014-Aug-26 19:32N 51°29' E 000°11'0 0.0
2014-Aug-26 18:32N 51°29' E 000°11'0 0.0
2014-Aug-26 17:32N 51°29' E 000°11'0 0.0
2014-Aug-26 16:32N 51°29' E 000°11'0 0.0
2014-Aug-26 15:32N 51°29' E 000°11'0 0.0
2014-Aug-26 14:32N 51°29' E 000°11'0 0.1
2014-Aug-26 13:32N 51°30' E 000°11'0 0.0
2014-Aug-26 12:32N 51°30' E 000°11'0 0.0
2014-Aug-26 11:32N 51°30' E 000°11'0 0.0
2014-Aug-26 10:32N 51°30' E 000°11'0 0.0
2014-Aug-26 09:29N 51°30' E 000°11'0 0.1
2014-Aug-26 08:32N 51°29' E 000°10'0 0.0
2014-Aug-26 07:32N 51°29' E 000°11'0 0.0
2014-Aug-26 06:32N 51°29' E 000°11'0 0.0
2014-Aug-26 05:32N 51°29' E 000°11'0 0.0
2014-Aug-26 04:32N 51°29' E 000°11'0 0.0
2014-Aug-26 03:32N 51°29' E 000°11'0 0.0
2014-Aug-26 02:32N 51°29' E 000°11'0 0.1
2014-Aug-26 01:32N 51°30' E 000°11'0 0.0
2014-Aug-26 00:32N 51°30' E 000°11'0 0.0
2014-Aug-25 23:32N 51°30' E 000°11'0 0.0
2014-Aug-25 22:32N 51°30' E 000°11'0 0.0
2014-Aug-25 21:32N 51°30' E 000°11'0 0.1
2014-Aug-25 20:29N 51°29' E 000°11'0 0.0
2014-Aug-25 19:32N 51°29' E 000°11'0 0.0
2014-Aug-25 18:32N 51°29' E 000°11'0 0.0
2014-Aug-25 17:29N 51°29' E 000°11'0 0.0
2014-Aug-25 16:32N 51°29' E 000°11'0 0.0
2014-Aug-25 15:32N 51°29' E 000°11'0 0.0
2014-Aug-25 14:29N 51°29' E 000°11'0 0.1
2014-Aug-25 13:32N 51°30' E 000°11'2 1.8
2014-Aug-25 12:31N 51°31' E 000°09'0 0.0
2014-Aug-25 11:33N 51°31' E 000°09'0 0.0
2014-Aug-25 10:30N 51°31' E 000°09'0 0.0
2014-Aug-25 09:33N 51°31' E 000°09'0 0.0
2014-Aug-25 08:33N 51°31' E 000°09'0 0.0
2014-Aug-25 07:27N 51°31' E 000°09'0 0.0
2014-Aug-25 06:33N 51°31' E 000°09'0 0.0
2014-Aug-25 05:33N 51°31' E 000°09'0 0.0
2014-Aug-25 04:30N 51°31' E 000°09'0 0.0
2014-Aug-25 03:33N 51°31' E 000°09'0 0.0
2014-Aug-24 22:24N 51°31' E 000°09'0 0.0
2014-Aug-24 21:21N 51°31' E 000°09'0 0.0
2014-Aug-24 20:33N 51°31' E 000°09'0 0.0
2014-Aug-24 19:33N 51°31' E 000°09'0 0.0
2014-Aug-24 18:33N 51°31' E 000°09'0 0.0
2014-Aug-24 17:33N 51°31' E 000°09'0 0.0
2014-Aug-24 16:33N 51°31' E 000°09'0 0.0
2014-Aug-24 15:21N 51°31' E 000°09'0 0.0
2014-Aug-24 14:33N 51°31' E 000°09'0 0.0
2014-Aug-24 13:33N 51°31' E 000°09'0 0.0
2014-Aug-24 12:33N 51°31' E 000°09'0 0.0
2014-Aug-24 11:33N 51°31' E 000°09'0 0.0
2014-Aug-24 10:33N 51°31' E 000°09'0 0.0
2014-Aug-24 09:33N 51°31' E 000°09'0 0.0
2014-Aug-24 08:33N 51°31' E 000°09'0 0.0
2014-Aug-24 07:33N 51°31' E 000°09'0 0.0
2014-Aug-24 06:33N 51°31' E 000°09'0 0.0
2014-Aug-24 05:33N 51°31' E 000°09'0 0.0
2014-Aug-24 04:33N 51°31' E 000°09'0 0.0
2014-Aug-24 03:33N 51°31' E 000°09'0 0.0
2014-Aug-24 02:19N 51°31' E 000°09'0 0.0
2014-Aug-24 01:32N 51°31' E 000°09'0 0.0
2014-Aug-24 00:33N 51°31' E 000°09'0 0.0
2014-Aug-23 23:32N 51°31' E 000°09'0 0.0
2014-Aug-23 22:33N 51°31' E 000°09'0 0.0
2014-Aug-23 21:33N 51°31' E 000°09'0 0.0
2014-Aug-23 20:33N 51°31' E 000°09'0 0.0
2014-Aug-23 19:31N 51°31' E 000°09'53 3.3
2014-Aug-23 03:33N 51°23' E 001°33'6 6.2
2014-Aug-23 02:34N 51°17' E 001°37'6 5.8
2014-Aug-23 01:33N 51°11' E 001°37'7 7.2
2014-Aug-23 00:33N 51°04' E 001°37'49 7.7
2014-Aug-22 18:15N 50°29' E 000°44'6 8.0
2014-Aug-22 17:33N 50°27' E 000°35'262 5.3
2014-Aug-20 16:33N 52°10' W 005°49'7 6.9
2014-Aug-20 15:31N 52°17' W 005°48'119 8.5
2014-Aug-20 01:33N 54°15' W 005°17'8 8.5
2014-Aug-20 00:33N 54°23' W 005°16'8 8.0
2014-Aug-19 23:33N 54°31' W 005°17'8 7.8
2014-Aug-19 22:33N 54°38' W 005°24'7 6.6
2014-Aug-19 21:33N 54°43' W 005°31'8 8.3
2014-Aug-19 20:33N 54°42' W 005°45'7 6.2
2014-Aug-19 19:22N 54°37' W 005°55'0 0.0
2014-Aug-19 18:28N 54°37' W 005°55'0 0.0
2014-Aug-19 17:10N 54°37' W 005°55'0 0.0
2014-Aug-19 16:25N 54°37' W 005°55'0 0.0
2014-Aug-19 15:16N 54°37' W 005°55'0 0.0
2014-Aug-19 14:28N 54°37' W 005°55'0 0.0
2014-Aug-19 13:22N 54°37' W 005°55'0 0.0
2014-Aug-19 12:28N 54°37' W 005°55'0 0.0
2014-Aug-19 11:28N 54°37' W 005°55'  
Track history (hours):
 
Tides and Currents Weather Stations Pressure Air Temp Water Temp Dewpoint Dewpoint Depression Visibility Wind Speed Wind Dir Waves Ship Positions

Doris T

Last reported at 2014-Aug-29 09:33 UTC. Time now 2014-Aug-30 00:33 UTC.
Position N 50°33' E 000°09'.

Length 79 m; draft 5.1 m.

Type: Cargo ship. MMSI: 304010102.

Date/timePositionNaut miles runAvg speedWind from/ knotsBaromVisibWave heightAir tempDewpointWater temp
2014-Aug-29 09:33N 50°33' E 000°09'5 5.3
2014-Aug-29 08:34N 50°35' E 000°17'7 6.6
2014-Aug-29 07:33N 50°37' E 000°27'7 7.4
2014-Aug-29 06:33N 50°40' E 000°37'8 7.6
2014-Aug-29 05:33N 50°44' E 000°47'8 7.3
2014-Aug-29 04:31N 50°49' E 000°57'22 5.5
2014-Aug-29 00:33N 51°03' E 001°24'6 5.6
2014-Aug-28 23:33N 51°06' E 001°30'8 7.7
2014-Aug-28 22:34N 51°13' E 001°38'9 9.3
2014-Aug-28 21:34N 51°22' E 001°34'9 8.8
2014-Aug-28 20:33N 51°28' E 001°24'9 9.1
2014-Aug-28 19:33N 51°29' E 001°09'9 9.1
2014-Aug-28 18:33N 51°29' E 000°55'1010.3
2014-Aug-28 17:33N 51°30' E 000°38'10 9.9
2014-Aug-28 16:34N 51°27' E 000°23'8 8.2
2014-Aug-28 15:34N 51°30' E 000°11'0 0.1
2014-Aug-28 14:32N 51°30' E 000°10'0 0.0
2014-Aug-28 13:32N 51°30' E 000°10'0 0.0
2014-Aug-28 12:32N 51°30' E 000°10'0 0.0
2014-Aug-28 11:32N 51°30' E 000°10'0 0.0
2014-Aug-28 10:32N 51°30' E 000°10'0 0.0
2014-Aug-28 09:29N 51°30' E 000°10'0 0.0
2014-Aug-28 08:29N 51°30' E 000°10'0 0.0
2014-Aug-28 07:32N 51°30' E 000°10'0 0.0
2014-Aug-28 06:32N 51°30' E 000°10'0 0.0
2014-Aug-28 05:32N 51°30' E 000°10'0 0.0
2014-Aug-28 04:29N 51°30' E 000°10'0 0.0
2014-Aug-28 03:32N 51°30' E 000°10'0 0.0
2014-Aug-28 02:29N 51°30' E 000°10'0 0.0
2014-Aug-28 01:32N 51°30' E 000°10'0 0.0
2014-Aug-28 00:32N 51°30' E 000°10'0 0.0
2014-Aug-27 23:32N 51°30' E 000°10'0 0.0
2014-Aug-27 22:29N 51°30' E 000°10'0 0.0
2014-Aug-27 21:29N 51°30' E 000°10'0 0.0
2014-Aug-27 20:29N 51°30' E 000°10'0 0.0
2014-Aug-27 19:32N 51°30' E 000°10'0 0.0
2014-Aug-27 18:32N 51°30' E 000°10'0 0.0
2014-Aug-27 17:32N 51°30' E 000°10'0 0.0
2014-Aug-27 16:32N 51°30' E 000°10'0 0.0
2014-Aug-27 15:32N 51°30' E 000°10'0 0.0
2014-Aug-27 14:32N 51°30' E 000°10'0 0.0
2014-Aug-27 13:32N 51°30' E 000°10'0 0.0
2014-Aug-27 12:32N 51°30' E 000°10'0 0.0
2014-Aug-27 11:32N 51°30' E 000°10'0 0.0
2014-Aug-27 10:32N 51°30' E 000°10'0 0.0
2014-Aug-27 09:29N 51°30' E 000°10'0 0.0
2014-Aug-27 08:32N 51°30' E 000°10'0 0.0
2014-Aug-27 07:29N 51°30' E 000°10'0 0.0
2014-Aug-27 06:32N 51°30' E 000°10'0 0.0
2014-Aug-27 05:32N 51°30' E 000°10'0 0.0
2014-Aug-27 04:32N 51°30' E 000°10'0 0.0
2014-Aug-27 03:32N 51°30' E 000°10'0 0.1
2014-Aug-27 02:32N 51°30' E 000°11'0 0.0
2014-Aug-27 01:29N 51°30' E 000°11'0 0.0
2014-Aug-27 00:32N 51°30' E 000°11'0 0.0
2014-Aug-26 23:32N 51°30' E 000°11'0 0.0
2014-Aug-26 22:32N 51°30' E 000°11'0 0.0
2014-Aug-26 21:32N 51°30' E 000°11'0 0.1
2014-Aug-26 20:32N 51°29' E 000°11'0 0.0
2014-Aug-26 19:32N 51°29' E 000°11'0 0.0
2014-Aug-26 18:32N 51°29' E 000°11'0 0.0
2014-Aug-26 17:32N 51°29' E 000°11'0 0.0
2014-Aug-26 16:32N 51°29' E 000°11'0 0.0
2014-Aug-26 15:32N 51°29' E 000°11'0 0.0
2014-Aug-26 14:32N 51°29' E 000°11'0 0.1
2014-Aug-26 13:32N 51°30' E 000°11'0 0.0
2014-Aug-26 12:32N 51°30' E 000°11'0 0.0
2014-Aug-26 11:32N 51°30' E 000°11'0 0.0
2014-Aug-26 10:32N 51°30' E 000°11'0 0.0
2014-Aug-26 09:29N 51°30' E 000°11'0 0.1
2014-Aug-26 08:32N 51°29' E 000°10'0 0.0
2014-Aug-26 07:32N 51°29' E 000°11'0 0.0
2014-Aug-26 06:32N 51°29' E 000°11'0 0.0
2014-Aug-26 05:32N 51°29' E 000°11'0 0.0
2014-Aug-26 04:32N 51°29' E 000°11'0 0.0
2014-Aug-26 03:32N 51°29' E 000°11'0 0.0
2014-Aug-26 02:32N 51°29' E 000°11'0 0.1
2014-Aug-26 01:32N 51°30' E 000°11'0 0.0
2014-Aug-26 00:32N 51°30' E 000°11'0 0.0
2014-Aug-25 23:32N 51°30' E 000°11'0 0.0
2014-Aug-25 22:32N 51°30' E 000°11'0 0.0
2014-Aug-25 21:32N 51°30' E 000°11'0 0.1
2014-Aug-25 20:29N 51°29' E 000°11'0 0.0
2014-Aug-25 19:32N 51°29' E 000°11'0 0.0
2014-Aug-25 18:32N 51°29' E 000°11'0 0.0
2014-Aug-25 17:29N 51°29' E 000°11'0 0.0
2014-Aug-25 16:32N 51°29' E 000°11'0 0.0
2014-Aug-25 15:32N 51°29' E 000°11'0 0.0
2014-Aug-25 14:29N 51°29' E 000°11'0 0.1
2014-Aug-25 13:32N 51°30' E 000°11'2 1.8
2014-Aug-25 12:31N 51°31' E 000°09'0 0.0
2014-Aug-25 11:33N 51°31' E 000°09'0 0.0
2014-Aug-25 10:30N 51°31' E 000°09'0 0.0
2014-Aug-25 09:33N 51°31' E 000°09'0 0.0
2014-Aug-25 08:33N 51°31' E 000°09'0 0.0
2014-Aug-25 07:27N 51°31' E 000°09'0 0.0
2014-Aug-25 06:33N 51°31' E 000°09'0 0.0
2014-Aug-25 05:33N 51°31' E 000°09'0 0.0
2014-Aug-25 04:30N 51°31' E 000°09'0 0.0
2014-Aug-25 03:33N 51°31' E 000°09'0 0.0
2014-Aug-24 22:24N 51°31' E 000°09'0 0.0
2014-Aug-24 21:21N 51°31' E 000°09'0 0.0
2014-Aug-24 20:33N 51°31' E 000°09'0 0.0
2014-Aug-24 19:33N 51°31' E 000°09'0 0.0
2014-Aug-24 18:33N 51°31' E 000°09'0 0.0
2014-Aug-24 17:33N 51°31' E 000°09'0 0.0
2014-Aug-24 16:33N 51°31' E 000°09'0 0.0
2014-Aug-24 15:21N 51°31' E 000°09'0 0.0
2014-Aug-24 14:33N 51°31' E 000°09'0 0.0
2014-Aug-24 13:33N 51°31' E 000°09'0 0.0
2014-Aug-24 12:33N 51°31' E 000°09'0 0.0
2014-Aug-24 11:33N 51°31' E 000°09'0 0.0
2014-Aug-24 10:33N 51°31' E 000°09'0 0.0
2014-Aug-24 09:33N 51°31' E 000°09'0 0.0
2014-Aug-24 08:33N 51°31' E 000°09'0 0.0
2014-Aug-24 07:33N 51°31' E 000°09'0 0.0
2014-Aug-24 06:33N 51°31' E 000°09'0 0.0
2014-Aug-24 05:33N 51°31' E 000°09'0 0.0
2014-Aug-24 04:33N 51°31' E 000°09'0 0.0
2014-Aug-24 03:33N 51°31' E 000°09'0 0.0
2014-Aug-24 02:19N 51°31' E 000°09'0 0.0
2014-Aug-24 01:32N 51°31' E 000°09'0 0.0
2014-Aug-24 00:33N 51°31' E 000°09'0 0.0
2014-Aug-23 23:32N 51°31' E 000°09'0 0.0
2014-Aug-23 22:33N 51°31' E 000°09'0 0.0
2014-Aug-23 21:33N 51°31' E 000°09'0 0.0
2014-Aug-23 20:33N 51°31' E 000°09'0 0.0
2014-Aug-23 19:31N 51°31' E 000°09'53 3.3
2014-Aug-23 03:33N 51°23' E 001°33'6 6.2
2014-Aug-23 02:34N 51°17' E 001°37'6 5.8
2014-Aug-23 01:33N 51°11' E 001°37'7 7.2
2014-Aug-23 00:33N 51°04' E 001°37'49 7.7
2014-Aug-22 18:15N 50°29' E 000°44'6 8.0
2014-Aug-22 17:33N 50°27' E 000°35'262 5.3
2014-Aug-20 16:33N 52°10' W 005°49'7 6.9
2014-Aug-20 15:31N 52°17' W 005°48'119 8.5
2014-Aug-20 01:33N 54°15' W 005°17'8 8.5
2014-Aug-20 00:33N 54°23' W 005°16'8 8.0
2014-Aug-19 23:33N 54°31' W 005°17'8 7.8
2014-Aug-19 22:33N 54°38' W 005°24'7 6.6
2014-Aug-19 21:33N 54°43' W 005°31'8 8.3
2014-Aug-19 20:33N 54°42' W 005°45'7 6.2
2014-Aug-19 19:22N 54°37' W 005°55'0 0.0
2014-Aug-19 18:28N 54°37' W 005°55'0 0.0
2014-Aug-19 17:10N 54°37' W 005°55'0 0.0
2014-Aug-19 16:25N 54°37' W 005°55'0 0.0
2014-Aug-19 15:16N 54°37' W 005°55'0 0.0
2014-Aug-19 14:28N 54°37' W 005°55'0 0.0
2014-Aug-19 13:22N 54°37' W 005°55'0 0.0
2014-Aug-19 12:28N 54°37' W 005°55'0 0.0
2014-Aug-19 11:28N 54°37' W 005°55'  

Dump ship's entire track history